Time;durP1;ratioP1;P1;durP2;ratioP2;P2;SDS_P1;SDS_P2;PMS_P1;PMS_P2;Temp;Humidity;BMP_temperature;BMP_pressure;BME280_temperature;BME280_humidity;BME280_pressure;Samples;Min_cycle;Max_cycle;Signal;HPM_P1;HPM_P2
2022/12/20 04:03:00;;;;;;;3.80;2.93;;;6.40;84.80;;;;;;4953903;29;20957;-72
2022/12/20 04:05:27;;;;;;;4.63;3.10;;;6.50;84.80;;;;;;4955196;28;20834;-72
2022/12/20 04:07:54;;;;;;;4.40;4.00;;;6.60;84.50;;;;;;4955377;28;20467;-72
2022/12/20 04:10:20;;;;;;;3.87;3.00;;;6.60;84.40;;;;;;4955327;28;20443;-73
2022/12/20 04:12:47;;;;;;;3.10;2.80;;;6.60;84.40;;;;;;4955332;28;20447;-72
2022/12/20 04:15:14;;;;;;;4.30;3.37;;;6.70;84.20;;;;;;4955973;28;20463;-72
2022/12/20 04:17:40;;;;;;;3.67;3.00;;;6.60;84.70;;;;;;4955377;28;20447;-72
2022/12/20 04:20:20;;;;;;;3.50;2.60;;;6.60;84.00;;;;;;4955047;28;20450;-73
2022/12/20 04:22:48;;;;;;;3.40;3.10;;;6.60;84.00;;;;;;4955252;28;20434;-72
2022/12/20 04:25:17;;;;;;;2.90;2.50;;;6.60;84.00;;;;;;4955109;28;20455;-73
2022/12/20 04:27:43;;;;;;;3.47;3.07;;;6.60;84.10;;;;;;4955197;28;20493;-72
2022/12/20 04:30:12;;;;;;;3.37;2.57;;;6.60;84.40;;;;;;4955191;28;20447;-73
2022/12/20 04:32:38;;;;;;;3.23;2.90;;;6.60;84.10;;;;;;4955072;28;20797;-72
2022/12/20 04:35:06;;;;;;;3.80;3.40;;;6.60;84.40;;;;;;4955122;28;20455;-73
2022/12/20 04:37:34;;;;;;;4.40;3.80;;;6.70;84.20;;;;;;4955097;28;20447;-72
2022/12/20 04:40:01;;;;;;;4.30;3.00;;;6.60;84.10;;;;;;4954810;28;20945;-73
2022/12/20 04:42:27;;;;;;;4.20;2.77;;;6.60;84.50;;;;;;4955009;28;20475;-73
2022/12/20 04:44:54;;;;;;;3.07;2.70;;;6.60;84.50;;;;;;4955031;28;20455;-73
2022/12/20 04:47:21;;;;;;;4.30;3.03;;;6.60;84.70;;;;;;4954564;28;21071;-72
2022/12/20 04:49:47;;;;;;;3.50;2.70;;;6.60;84.80;;;;;;4955016;28;20455;-73
2022/12/20 04:54:59;;;;;;;3.30;3.00;;;6.80;83.90;;;;;;4954770;29;20419;-73
2022/12/20 04:57:26;;;;;;;2.87;2.57;;;6.80;84.20;;;;;;4954937;28;20802;-73
2022/12/20 04:59:53;;;;;;;3.40;2.73;;;6.80;84.00;;;;;;4954914;28;20451;-73
2022/12/20 05:02:19;;;;;;;3.17;2.87;;;6.90;83.70;;;;;;4982980;28;20493;-72
2022/12/20 05:04:46;;;;;;;3.67;3.30;;;6.90;83.20;;;;;;4993566;28;20453;-73
2022/12/20 05:07:13;;;;;;;5.93;4.57;;;6.80;83.20;;;;;;4994535;28;20539;-72
2022/12/20 05:09:39;;;;;;;5.03;4.20;;;6.90;83.20;;;;;;4993584;28;20819;-73
2022/12/20 05:12:08;;;;;;;4.83;4.13;;;7.00;83.30;;;;;;4993413;28;20477;-73
2022/12/20 05:14:34;;;;;;;5.00;3.83;;;7.00;83.00;;;;;;4993458;28;20444;-73
2022/12/20 05:17:01;;;;;;;3.70;3.27;;;6.90;83.20;;;;;;4993740;28;20809;-73
2022/12/20 05:19:28;;;;;;;3.77;3.13;;;6.90;83.40;;;;;;4997181;28;20453;-72
2022/12/20 05:27:26;;;;;;;3.30;2.80;;;7.10;83.60;;;;;;4987997;28;20503;-72
2022/12/20 05:29:53;;;;;;;3.43;3.00;;;7.20;83.10;;;;;;4996896;28;20451;-73
2022/12/20 05:32:20;;;;;;;3.30;2.70;;;7.20;82.90;;;;;;4996767;28;20476;-72
2022/12/20 05:34:46;;;;;;;4.47;3.03;;;7.30;82.60;;;;;;4996994;28;20445;-73
2022/12/20 05:37:13;;;;;;;4.03;3.07;;;7.30;82.20;;;;;;4996454;28;20441;-73
2022/12/20 05:39:40;;;;;;;3.43;2.73;;;7.40;82.20;;;;;;4996681;28;20460;-73
2022/12/20 05:42:06;;;;;;;3.33;2.77;;;7.40;81.90;;;;;;4996620;28;20472;-73
2022/12/20 05:44:34;;;;;;;3.63;3.23;;;7.30;82.10;;;;;;4996482;28;20900;-73
2022/12/20 05:47:01;;;;;;;3.07;2.77;;;7.20;82.40;;;;;;4996488;28;20489;-72
2022/12/20 05:49:28;;;;;;;3.73;2.97;;;7.20;82.50;;;;;;4996609;28;20452;-73
2022/12/20 05:51:55;;;;;;;3.40;2.87;;;7.20;82.60;;;;;;4996894;28;20492;-73
2022/12/20 05:54:21;;;;;;;3.67;3.23;;;7.20;82.60;;;;;;4997190;28;20449;-73
2022/12/20 05:56:48;;;;;;;4.00;2.87;;;7.10;82.60;;;;;;4997147;28;20445;-73
2022/12/20 05:59:16;;;;;;;3.37;2.53;;;7.10;82.90;;;;;;4996573;28;20874;-73
2022/12/20 06:01:44;;;;;;;2.93;2.53;;;7.10;82.80;;;;;;4996139;28;20492;-72
2022/12/20 06:04:11;;;;;;;3.70;2.87;;;7.20;82.60;;;;;;4995931;28;20947;-73
2022/12/20 06:06:38;;;;;;;3.20;2.57;;;7.20;82.30;;;;;;4996047;28;20485;-73
2022/12/20 06:09:04;;;;;;;4.20;2.97;;;7.20;82.20;;;;;;4996192;28;20453;-73
2022/12/20 06:11:31;;;;;;;3.03;2.43;;;7.20;81.90;;;;;;4996058;28;20469;-73
2022/12/20 06:14:20;;;;;;;3.77;3.10;;;7.20;82.00;;;;;;4996480;28;20445;-73
2022/12/20 06:16:48;;;;;;;4.40;3.50;;;7.30;81.60;;;;;;4995816;28;20461;-73
2022/12/20 06:19:15;;;;;;;4.90;3.90;;;7.20;81.70;;;;;;4996014;28;20484;-73
2022/12/20 06:21:42;;;;;;;5.57;3.50;;;7.20;81.80;;;;;;4995807;28;20985;-73
2022/12/20 06:24:09;;;;;;;4.37;3.77;;;7.20;82.00;;;;;;4995633;28;20931;-73
2022/12/20 06:26:35;;;;;;;6.47;5.77;;;7.20;82.50;;;;;;4995766;28;20497;-73
2022/12/20 06:29:02;;;;;;;7.53;6.07;;;7.20;82.30;;;;;;4995940;28;20452;-72
2022/12/20 06:31:29;;;;;;;4.77;4.30;;;7.20;82.30;;;;;;4995449;28;20994;-73
2022/12/20 06:33:57;;;;;;;3.93;3.20;;;7.10;82.40;;;;;;4996810;28;20769;-72
2022/12/20 06:36:24;;;;;;;4.40;3.70;;;7.10;82.60;;;;;;4995626;28;20453;-73
2022/12/20 06:38:50;;;;;;;4.23;3.17;;;7.00;83.20;;;;;;4995847;28;20448;-74
2022/12/20 06:41:17;;;;;;;3.07;2.67;;;7.00;83.20;;;;;;4995453;28;20492;-74
2022/12/20 06:43:44;;;;;;;3.83;3.00;;;7.10;83.20;;;;;;4995504;28;20456;-74
2022/12/20 06:46:11;;;;;;;4.63;3.50;;;7.20;83.10;;;;;;4995107;28;21021;-74
2022/12/20 06:48:37;;;;;;;3.20;2.67;;;7.20;82.60;;;;;;4995482;28;20448;-74
2022/12/20 06:51:05;;;;;;;2.90;2.60;;;7.20;82.60;;;;;;4994988;28;20843;-74
2022/12/20 06:53:32;;;;;;;3.90;3.03;;;7.30;82.70;;;;;;4995314;28;20456;-73
2022/12/20 06:55:59;;;;;;;4.23;3.30;;;7.30;82.50;;;;;;4995342;28;20472;-74
2022/12/20 06:58:26;;;;;;;3.77;3.10;;;7.30;82.80;;;;;;4995229;28;20453;-73
2022/12/20 07:00:52;;;;;;;3.13;2.70;;;7.30;82.40;;;;;;4994980;28;20473;-73
2022/12/20 07:03:19;;;;;;;4.23;3.10;;;7.30;82.70;;;;;;4995526;28;20476;-73
2022/12/20 07:05:51;;;;;;;3.63;2.97;;;7.40;82.70;;;;;;4994782;28;20824;-74
2022/12/20 07:08:20;;;;;;;2.60;2.40;;;7.50;82.50;;;;;;4994784;28;20457;-73
2022/12/20 07:10:47;;;;;;;2.90;2.43;;;7.50;82.00;;;;;;4995136;28;20510;-74
2022/12/20 07:13:14;;;;;;;3.07;2.37;;;7.60;82.20;;;;;;4995210;28;20449;-73
2022/12/20 07:15:40;;;;;;;3.97;2.80;;;7.60;81.40;;;;;;4994798;28;20446;-73
2022/12/20 07:18:07;;;;;;;3.83;2.57;;;7.60;81.50;;;;;;4994788;28;20449;-74
2022/12/20 07:20:34;;;;;;;3.07;2.23;;;7.60;81.40;;;;;;4994710;28;20807;-74
2022/12/20 07:23:00;;;;;;;2.83;2.10;;;7.60;81.40;;;;;;4994718;28;20457;-74
2022/12/20 07:25:29;;;;;;;3.07;2.10;;;7.60;81.40;;;;;;4994905;28;20449;-73
2022/12/20 07:27:55;;;;;;;3.83;2.30;;;7.70;81.50;;;;;;4995018;28;20489;-74
2022/12/20 07:30:23;;;;;;;2.97;2.43;;;7.70;81.30;;;;;;4994700;28;20449;-74
2022/12/20 07:32:51;;;;;;;3.30;1.90;;;7.70;81.20;;;;;;4994818;28;20449;-73
2022/12/20 07:35:18;;;;;;;2.23;1.97;;;7.70;81.20;;;;;;4994849;28;20476;-73
2022/12/20 07:37:44;;;;;;;2.90;2.40;;;7.70;81.30;;;;;;4994590;28;20484;-74
2022/12/20 07:40:13;;;;;;;2.77;2.13;;;7.70;81.40;;;;;;4994115;28;20529;-74
2022/12/20 07:42:41;;;;;;;3.07;2.30;;;7.80;81.30;;;;;;4994494;28;20473;-74
2022/12/20 07:45:08;;;;;;;3.17;2.37;;;7.80;81.20;;;;;;4994344;28;20957;-74
2022/12/20 07:47:35;;;;;;;3.00;2.13;;;7.90;81.20;;;;;;4994379;28;20489;-74
2022/12/20 07:50:02;;;;;;;2.83;2.30;;;7.90;80.70;;;;;;4994403;28;20547;-74
2022/12/20 07:52:32;;;;;;;4.33;2.40;;;8.00;80.70;;;;;;4994402;28;20551;-74
2022/12/20 07:55:03;;;;;;;3.37;2.73;;;8.00;80.70;;;;;;4993972;28;20824;-74
2022/12/20 07:57:33;;;;;;;3.70;2.50;;;8.10;80.30;;;;;;4994309;28;20430;-74
2022/12/20 08:00:03;;;;;;;3.47;2.93;;;8.10;80.30;;;;;;4994355;28;20437;-74
2022/12/20 08:02:35;;;;;;;3.67;2.50;;;8.10;80.30;;;;;;4994207;28;20489;-74
2022/12/20 08:05:03;;;;;;;2.80;1.97;;;8.10;80.50;;;;;;4994238;28;20441;-74
2022/12/20 08:07:30;;;;;;;2.40;2.00;;;8.10;80.50;;;;;;4994449;28;20532;-74
2022/12/20 08:09:58;;;;;;;3.23;2.30;;;8.10;80.60;;;;;;4994147;28;20461;-74
2022/12/20 08:12:26;;;;;;;2.87;2.47;;;8.10;80.50;;;;;;4994015;28;20469;-74
2022/12/20 08:14:55;;;;;;;3.13;2.20;;;8.10;80.40;;;;;;4994081;28;20450;-74
2022/12/20 08:17:23;;;;;;;3.23;2.07;;;8.20;80.50;;;;;;4993980;28;20453;-74
2022/12/20 08:19:50;;;;;;;2.60;2.10;;;8.20;80.10;;;;;;4994065;28;20450;-73
2022/12/20 08:22:18;;;;;;;3.37;2.40;;;8.20;80.20;;;;;;4993816;28;20818;-74
2022/12/20 08:24:44;;;;;;;4.33;2.20;;;8.20;80.30;;;;;;4994924;28;20481;-74
2022/12/20 08:27:11;;;;;;;2.87;2.37;;;8.20;80.10;;;;;;4993899;28;20489;-73
2022/12/20 08:29:38;;;;;;;2.43;1.80;;;8.30;80.30;;;;;;4993812;28;20825;-74
2022/12/20 08:32:04;;;;;;;2.80;2.37;;;8.30;79.90;;;;;;4993725;28;20987;-74
2022/12/20 08:34:33;;;;;;;2.97;2.37;;;8.30;79.70;;;;;;4993974;28;20456;-74
2022/12/20 08:37:00;;;;;;;2.73;2.10;;;8.50;80.00;;;;;;4993661;28;20444;-73
2022/12/20 08:39:27;;;;;;;2.90;1.70;;;8.50;79.40;;;;;;4993965;28;20457;-74
2022/12/20 08:41:53;;;;;;;3.33;2.07;;;8.60;79.20;;;;;;4993739;28;20465;-74
2022/12/20 08:44:20;;;;;;;2.43;1.93;;;8.60;79.00;;;;;;4993664;28;20449;-74
2022/12/20 08:46:47;;;;;;;2.97;2.30;;;8.70;79.20;;;;;;4993721;28;20481;-74
2022/12/20 08:49:14;;;;;;;2.77;2.13;;;8.80;78.60;;;;;;4993769;28;20457;-74
2022/12/20 08:51:42;;;;;;;2.93;2.60;;;8.80;78.50;;;;;;4993621;28;20501;-74
2022/12/20 08:54:08;;;;;;;4.00;2.23;;;8.90;78.50;;;;;;4997420;28;20453;-74
2022/12/20 08:56:35;;;;;;;3.03;1.90;;;9.00;78.00;;;;;;4997814;28;20445;-74
2022/12/20 08:59:02;;;;;;;3.20;2.40;;;8.90;78.10;;;;;;4997533;28;20456;-74
2022/12/20 09:01:32;;;;;;;3.07;2.33;;;8.90;77.90;;;;;;4997051;28;20850;-74
2022/12/20 09:03:59;;;;;;;2.77;1.80;;;8.80;78.30;;;;;;4997730;28;20452;-74
2022/12/20 09:06:26;;;;;;;2.70;2.17;;;8.60;78.70;;;;;;4997378;28;20449;-74
2022/12/20 09:08:54;;;;;;;2.93;1.90;;;8.60;79.10;;;;;;4997352;28;20484;-74
2022/12/20 09:11:24;;;;;;;2.97;2.07;;;8.60;78.90;;;;;;4997210;28;20473;-74
2022/12/20 09:13:53;;;;;;;2.50;2.10;;;8.60;79.20;;;;;;4996984;28;20448;-74
2022/12/20 09:16:23;;;;;;;2.90;2.10;;;8.80;79.00;;;;;;4997138;28;20504;-74
2022/12/20 09:18:51;;;;;;;2.80;1.80;;;8.80;78.60;;;;;;4997130;28;20449;-74
2022/12/20 09:21:19;;;;;;;3.30;2.37;;;8.80;78.20;;;;;;4997055;28;20472;-74
2022/12/20 09:23:46;;;;;;;2.40;1.77;;;8.80;78.70;;;;;;4997113;28;20472;-74
2022/12/20 09:26:15;;;;;;;3.00;2.47;;;8.80;78.50;;;;;;4996762;28;20954;-74
2022/12/20 09:28:43;;;;;;;3.23;2.40;;;8.80;78.50;;;;;;4996942;28;20476;-74
2022/12/20 09:31:12;;;;;;;2.30;2.07;;;8.80;78.70;;;;;;4997840;28;20473;-74
2022/12/20 09:33:40;;;;;;;2.40;2.03;;;8.70;79.00;;;;;;4998525;28;20475;-75
2022/12/20 09:36:10;;;;;;;2.70;2.00;;;8.70;79.20;;;;;;4999991;28;20453;-73
2022/12/20 09:38:37;;;;;;;2.70;2.00;;;8.60;79.40;;;;;;4998862;28;20441;-73
2022/12/20 09:41:06;;;;;;;2.73;2.20;;;8.60;79.40;;;;;;4996844;28;20528;-73
2022/12/20 09:43:34;;;;;;;3.53;2.50;;;8.60;79.50;;;;;;4996727;28;20456;-74
2022/12/20 09:46:03;;;;;;;3.93;2.23;;;8.60;79.70;;;;;;4996691;28;20792;-73
2022/12/20 09:48:33;;;;;;;2.70;2.00;;;8.60;79.50;;;;;;4996596;28;20512;-74
2022/12/20 09:51:14;;;;;;;2.30;1.77;;;8.60;79.60;;;;;;4996507;28;20474;-74
2022/12/20 09:53:51;;;;;;;2.57;1.83;;;8.70;79.50;;;;;;4996510;28;20434;-75
2022/12/20 09:56:26;;;;;;;2.50;1.93;;;8.60;79.30;;;;;;4997320;28;20425;-74
2022/12/20 09:59:03;;;;;;;3.90;2.17;;;8.60;79.90;;;;;;4996474;28;20487;-73
2022/12/20 10:01:31;;;;;;;2.70;1.70;;;8.80;79.50;;;;;;4996113;28;20484;-74
2022/12/20 10:04:02;;;;;;;2.80;1.80;;;8.90;78.90;;;;;;4995889;28;20449;-74
2022/12/20 10:06:40;;;;;;;3.23;1.80;;;9.00;78.80;;;;;;4996050;28;20803;-74
2022/12/20 10:09:30;;;;;;;2.23;1.77;;;9.00;78.50;;;;;;4996183;28;20477;-74
2022/12/20 10:12:08;;;;;;;2.50;1.70;;;9.10;78.30;;;;;;4995778;28;20889;-74
2022/12/20 10:14:55;;;;;;;2.87;2.10;;;9.20;78.30;;;;;;4996774;28;20500;-74
2022/12/20 10:17:31;;;;;;;2.23;1.53;;;9.20;78.30;;;;;;4996383;28;20429;-74
2022/12/20 10:20:17;;;;;;;2.50;2.10;;;9.20;78.20;;;;;;4996072;28;20468;-74
2022/12/20 10:22:50;;;;;;;4.40;2.20;;;9.20;77.60;;;;;;4995937;28;20500;-74
2022/12/20 10:25:21;;;;;;;3.67;2.20;;;9.20;77.90;;;;;;4996019;28;20434;-73
2022/12/20 10:27:50;;;;;;;4.73;2.00;;;9.10;77.70;;;;;;4995863;28;20473;-74
2022/12/20 10:30:21;;;;;;;3.57;2.30;;;9.20;78.30;;;;;;4995866;28;20504;-74
2022/12/20 10:32:50;;;;;;;3.80;2.40;;;9.20;78.20;;;;;;4995815;28;20457;-74
2022/12/20 10:35:24;;;;;;;2.47;1.80;;;9.20;77.80;;;;;;4995503;28;20961;-73
2022/12/20 10:38:00;;;;;;;2.80;1.97;;;9.10;78.00;;;;;;4996116;28;20456;-72
2022/12/20 10:40:29;;;;;;;2.63;1.83;;;9.20;77.70;;;;;;4995764;28;20457;-74
2022/12/20 10:42:56;;;;;;;3.70;3.10;;;9.10;78.00;;;;;;4995757;28;20450;-73
2022/12/20 10:45:34;;;;;;;2.30;1.90;;;9.10;78.20;;;;;;4995651;28;20541;-75
2022/12/20 10:48:02;;;;;;;2.60;1.90;;;9.00;78.20;;;;;;4995325;28;20997;-74
2022/12/20 10:50:29;;;;;;;2.80;2.60;;;9.00;78.50;;;;;;4996067;28;20460;-75
2022/12/20 10:53:19;;;;;;;4.03;2.67;;;9.00;78.60;;;;;;4995816;28;20457;-75
2022/12/20 10:55:46;;;;;;;2.73;1.93;;;9.00;78.30;;;;;;4995621;28;20452;-74
2022/12/20 10:58:16;;;;;;;3.87;2.00;;;9.00;78.50;;;;;;4995081;28;20962;-74
2022/12/20 11:00:45;;;;;;;4.57;2.20;;;9.10;78.40;;;;;;4995126;28;20548;-75
2022/12/20 11:03:16;;;;;;;2.47;2.00;;;9.10;78.30;;;;;;4995125;28;20480;-74
2022/12/20 11:05:54;;;;;;;2.27;1.80;;;9.10;78.10;;;;;;4995004;28;20907;-75
2022/12/20 11:08:23;;;;;;;2.33;2.07;;;9.10;78.10;;;;;;4994899;28;21001;-74
2022/12/20 11:10:50;;;;;;;3.33;2.10;;;9.20;78.30;;;;;;4995170;28;20473;-73
2022/12/20 11:13:24;;;;;;;3.10;1.93;;;9.20;77.70;;;;;;4995189;28;20450;-74
2022/12/20 11:15:55;;;;;;;3.17;2.17;;;9.20;78.00;;;;;;4994226;28;20777;-74
2022/12/20 11:18:35;;;;;;;2.83;2.10;;;9.20;77.80;;;;;;4995254;28;20434;-74
2022/12/20 11:21:14;;;;;;;2.53;1.80;;;9.30;77.50;;;;;;4995644;28;20468;-74
2022/12/20 11:23:45;;;;;;;2.90;2.20;;;9.30;77.30;;;;;;4995040;28;20465;-74
2022/12/20 11:26:26;;;;;;;2.90;2.30;;;9.30;77.60;;;;;;4996355;28;20465;-74
2022/12/20 11:29:06;;;;;;;2.47;1.90;;;9.30;77.50;;;;;;4996463;28;20575;-74
2022/12/20 11:31:46;;;;;;;5.97;2.37;;;9.50;77.40;;;;;;4994896;28;20465;-75
2022/12/20 11:34:27;;;;;;;2.90;1.83;;;9.50;76.80;;;;;;4994920;28;20434;-74
2022/12/20 11:37:09;;;;;;;3.20;2.00;;;9.50;76.90;;;;;;4994710;28;20437;-74
2022/12/20 11:39:44;;;;;;;2.63;1.70;;;9.60;76.70;;;;;;4994877;28;20808;-74
2022/12/20 11:42:22;;;;;;;2.33;1.53;;;9.50;76.40;;;;;;4994682;28;20476;-75
2022/12/20 11:44:57;;;;;;;3.30;2.27;;;9.60;76.70;;;;;;4994878;28;20441;-74
2022/12/20 11:47:47;;;;;;;3.40;2.57;;;9.60;76.40;;;;;;4994501;28;20437;-76
2022/12/20 11:50:45;;;;;;;2.33;1.70;;;9.60;76.40;;;;;;4962205;28;20450;-75
2022/12/20 11:53:20;;;;;;;3.57;1.87;;;9.70;76.50;;;;;;4994507;28;20433;-75
2022/12/20 11:55:51;;;;;;;2.80;2.10;;;9.60;76.10;;;;;;4994347;28;20437;-74
2022/12/20 11:58:25;;;;;;;2.83;2.10;;;9.70;75.90;;;;;;4994741;28;20850;-75
2022/12/20 12:00:57;;;;;;;3.30;2.00;;;9.70;75.90;;;;;;4997657;28;20469;-75
2022/12/20 12:03:31;;;;;;;3.37;2.17;;;9.70;76.10;;;;;;4997551;28;20488;-75
2022/12/20 12:06:02;;;;;;;3.23;2.00;;;9.80;76.30;;;;;;4998358;28;20436;-74
2022/12/20 12:08:36;;;;;;;2.27;1.80;;;9.80;76.10;;;;;;4997663;28;20471;-74
2022/12/20 12:11:08;;;;;;;2.93;1.77;;;9.80;75.40;;;;;;4997287;28;21009;-74
2022/12/20 12:13:39;;;;;;;2.20;1.87;;;9.80;75.70;;;;;;4998391;28;20458;-74
2022/12/20 12:16:10;;;;;;;3.10;1.83;;;9.70;75.90;;;;;;4997349;28;20939;-74
2022/12/20 12:18:40;;;;;;;2.40;1.60;;;9.80;75.80;;;;;;4997128;28;20437;-75
2022/12/20 12:21:13;;;;;;;2.33;2.00;;;9.80;76.20;;;;;;4996711;28;20473;-77
2022/12/20 12:23:49;;;;;;;2.67;1.60;;;9.90;75.70;;;;;;4998686;28;20545;-75
2022/12/20 12:26:21;;;;;;;2.73;1.60;;;9.90;75.70;;;;;;4998772;28;20421;-74
2022/12/20 12:28:53;;;;;;;2.60;1.77;;;10.00;75.60;;;;;;5003215;28;20465;-74
2022/12/20 12:31:26;;;;;;;3.20;1.77;;;10.00;75.60;;;;;;5003155;28;20481;-74
2022/12/20 12:34:06;;;;;;;2.20;1.60;;;10.00;75.30;;;;;;5005148;28;20460;-75
2022/12/20 12:36:56;;;;;;;4.70;1.87;;;10.00;75.10;;;;;;5004646;28;20436;-75
2022/12/20 12:39:57;;;;;;;2.57;1.87;;;10.00;75.50;;;;;;5004641;28;20430;-75
2022/12/20 12:42:52;;;;;;;3.40;1.90;;;10.00;75.00;;;;;;5003925;28;20458;-74
2022/12/20 12:45:25;;;;;;;2.63;1.73;;;10.00;75.30;;;;;;5003150;28;20544;-74
2022/12/20 12:47:55;;;;;;;2.50;1.90;;;10.10;75.10;;;;;;5002682;28;20425;-74
2022/12/20 12:50:28;;;;;;;2.27;1.70;;;10.20;74.80;;;;;;5001785;28;20456;-73
2022/12/20 12:52:57;;;;;;;2.63;1.73;;;10.20;74.60;;;;;;5002879;28;20437;-74
2022/12/20 12:55:42;;;;;;;3.10;2.00;;;10.20;74.60;;;;;;5002465;28;20445;-74
2022/12/20 12:58:33;;;;;;;2.13;1.47;;;10.30;74.30;;;;;;5003333;28;20450;-74
2022/12/20 13:01:02;;;;;;;2.00;1.53;;;10.30;74.40;;;;;;5003014;28;20512;-75
2022/12/20 13:03:46;;;;;;;2.17;1.40;;;10.20;74.20;;;;;;5003876;28;20445;-75
2022/12/20 13:06:54;;;;;;;2.70;1.70;;;10.20;74.20;;;;;;5005495;28;20498;-73
2022/12/20 13:09:37;;;;;;;2.40;1.73;;;10.30;74.70;;;;;;5012667;28;20496;-74
2022/12/20 13:12:48;;;;;;;2.07;1.60;;;10.30;74.50;;;;;;5018517;28;20467;-75
2022/12/20 13:15:50;;;;;;;2.83;1.60;;;10.40;74.00;;;;;;5015845;28;20484;-75
2022/12/20 13:18:25;;;;;;;2.97;1.80;;;10.40;74.30;;;;;;5007527;28;20409;-75
2022/12/20 13:21:31;;;;;;;4.20;2.27;;;10.60;74.30;;;;;;5005076;28;20491;-74
2022/12/20 13:24:37;;;;;;;2.83;1.80;;;10.70;73.90;;;;;;5003359;28;20456;-75
2022/12/20 13:27:25;;;;;;;4.13;2.10;;;10.70;73.20;;;;;;5003320;28;20420;-74
2022/12/20 13:30:01;;;;;;;2.30;1.70;;;10.60;73.90;;;;;;5002900;28;20483;-74
2022/12/20 13:33:07;;;;;;;2.60;1.83;;;10.50;73.10;;;;;;5002432;28;20546;-74
2022/12/20 13:35:53;;;;;;;3.43;1.87;;;10.40;74.00;;;;;;4997674;28;20449;-73
2022/12/20 13:38:51;;;;;;;3.23;2.00;;;10.40;74.10;;;;;;5000440;28;20453;-75
2022/12/20 13:41:36;;;;;;;4.30;2.50;;;10.50;74.10;;;;;;4998840;28;20508;-74
2022/12/20 13:44:39;;;;;;;4.47;2.23;;;10.60;73.90;;;;;;4999830;28;20757;-74
2022/12/20 13:47:32;;;;;;;3.57;2.53;;;10.70;73.70;;;;;;4996845;28;20849;-73
2022/12/20 13:50:23;;;;;;;2.60;2.10;;;10.70;73.30;;;;;;4985108;28;20493;-74
2022/12/20 13:52:53;;;;;;;3.00;2.03;;;10.60;72.90;;;;;;4998790;28;20488;-74
2022/12/20 13:55:27;;;;;;;2.80;1.90;;;10.50;73.70;;;;;;4998973;28;20988;-74
2022/12/20 13:57:54;;;;;;;3.50;1.90;;;10.40;74.00;;;;;;5001015;28;20437;-74
2022/12/20 14:00:26;;;;;;;2.90;2.00;;;10.50;74.40;;;;;;5004585;28;20546;-74
2022/12/20 14:02:53;;;;;;;3.40;3.00;;;10.60;73.80;;;;;;5005286;28;20469;-75
2022/12/20 14:05:25;;;;;;;5.73;3.10;;;11.00;73.90;;;;;;5005808;28;20438;-74
2022/12/20 14:07:58;;;;;;;2.83;2.50;;;12.10;71.50;;;;;;5005128;28;20846;-73
2022/12/20 14:10:27;;;;;;;4.37;2.20;;;13.60;68.30;;;;;;5005629;28;20480;-74
2022/12/20 14:12:56;;;;;;;2.90;1.80;;;14.50;63.90;;;;;;5002321;28;20442;-75
2022/12/20 14:15:30;;;;;;;5.00;4.50;;;14.50;63.00;;;;;;4998424;28;20453;-74
2022/12/20 14:17:57;;;;;;;9.10;8.20;;;13.70;64.50;;;;;;4998798;28;20426;-75
2022/12/20 14:20:29;;;;;;;6.63;6.03;;;12.80;66.80;;;;;;4999044;28;20449;-74
2022/12/20 14:23:01;;;;;;;4.63;4.23;;;12.20;69.00;;;;;;4998690;28;20482;-73
2022/12/20 14:25:32;;;;;;;3.90;3.50;;;11.70;70.60;;;;;;4998532;28;20414;-75
2022/12/20 14:27:59;;;;;;;4.37;3.97;;;11.20;71.80;;;;;;4998125;28;20418;-75
2022/12/20 14:30:31;;;;;;;4.97;4.37;;;10.90;73.30;;;;;;4998625;28;20485;-74
2022/12/20 14:32:58;;;;;;;3.53;3.10;;;11.10;72.90;;;;;;4998257;28;20433;-74
2022/12/20 14:35:26;;;;;;;4.87;4.37;;;11.00;73.40;;;;;;4998247;28;20488;-75
2022/12/20 14:37:55;;;;;;;3.37;2.90;;;10.90;73.80;;;;;;4997882;28;20445;-75
2022/12/20 14:40:22;;;;;;;2.90;2.47;;;10.90;73.70;;;;;;4998721;28;20442;-75
2022/12/20 14:42:49;;;;;;;3.40;2.70;;;10.70;74.20;;;;;;4997764;28;20457;-74
2022/12/20 14:45:20;;;;;;;3.00;1.93;;;10.70;74.10;;;;;;4998478;28;20452;-77
2022/12/20 14:47:56;;;;;;;3.10;2.37;;;10.60;74.40;;;;;;4998563;28;20461;-75
2022/12/20 14:50:32;;;;;;;2.70;2.07;;;10.40;74.80;;;;;;4996835;28;20468;-73
2022/12/20 14:53:00;;;;;;;3.00;2.07;;;10.30;74.30;;;;;;4998525;28;20429;-73
2022/12/20 14:55:33;;;;;;;2.27;1.80;;;10.30;74.00;;;;;;4997811;28;20450;-74
2022/12/20 14:58:00;;;;;;;3.77;2.37;;;10.40;74.10;;;;;;4998390;28;20485;-74
2022/12/20 15:00:30;;;;;;;2.20;1.63;;;10.30;74.10;;;;;;4997678;28;20869;-74
2022/12/20 15:03:16;;;;;;;2.93;2.03;;;10.40;74.10;;;;;;4998638;28;20461;-75
2022/12/20 15:05:49;;;;;;;2.97;2.03;;;10.50;74.10;;;;;;4998453;28;20434;-75
2022/12/20 15:08:18;;;;;;;5.07;4.67;;;10.50;74.10;;;;;;4998005;28;20442;-75
2022/12/20 15:10:53;;;;;;;5.93;5.43;;;10.30;74.80;;;;;;4998280;28;21000;-74
2022/12/20 15:13:21;;;;;;;6.00;4.67;;;9.80;76.20;;;;;;4998241;28;20842;-74
2022/12/20 15:15:48;;;;;;;5.03;4.60;;;9.60;77.40;;;;;;4997603;28;20447;-74
2022/12/20 15:18:18;;;;;;;7.33;6.47;;;9.50;77.90;;;;;;4998049;28;20465;-73
2022/12/20 15:20:47;;;;;;;6.13;5.53;;;9.30;78.40;;;;;;4998563;28;20462;-75
2022/12/20 15:23:16;;;;;;;7.43;5.93;;;9.10;79.20;;;;;;4998690;28;20969;-75
2022/12/20 15:25:44;;;;;;;7.17;5.53;;;9.00;79.30;;;;;;4997716;28;20938;-74
2022/12/20 15:28:16;;;;;;;6.50;4.90;;;9.10;79.60;;;;;;4995589;28;20484;-75
2022/12/20 15:30:44;;;;;;;6.27;5.67;;;9.40;78.70;;;;;;4995106;28;20489;-75
2022/12/20 15:33:18;;;;;;;5.40;4.80;;;9.50;78.20;;;;;;4994632;28;20942;-74
2022/12/20 15:35:45;;;;;;;5.20;4.70;;;9.60;77.60;;;;;;4994796;28;20434;-74
2022/12/20 15:38:16;;;;;;;5.60;5.10;;;9.60;77.40;;;;;;4994521;28;20528;-74
2022/12/20 15:40:43;;;;;;;4.90;4.40;;;9.70;77.40;;;;;;4994717;28;20556;-74
2022/12/20 15:43:12;;;;;;;4.40;4.00;;;9.80;76.90;;;;;;4994716;28;20453;-75
2022/12/20 15:45:40;;;;;;;4.80;4.33;;;9.80;76.90;;;;;;4995072;28;20539;-75
2022/12/20 15:48:13;;;;;;;6.70;5.60;;;9.70;76.80;;;;;;4994607;28;20456;-74
2022/12/20 15:50:43;;;;;;;4.50;4.07;;;9.70;76.90;;;;;;4994519;28;20532;-75
2022/12/20 15:53:13;;;;;;;3.80;3.50;;;9.70;77.00;;;;;;4994729;28;20809;-75
2022/12/20 15:55:40;;;;;;;6.87;4.07;;;9.60;77.20;;;;;;4994555;28;20457;-76
2022/12/20 15:58:06;;;;;;;6.70;3.57;;;9.60;77.40;;;;;;4994317;28;20453;-74
2022/12/20 16:00:33;;;;;;;3.77;3.43;;;9.50;77.50;;;;;;4994197;28;20519;-74
2022/12/20 16:03:00;;;;;;;3.90;3.50;;;9.50;77.60;;;;;;4994136;28;20557;-74
2022/12/20 16:05:27;;;;;;;3.53;2.93;;;9.50;77.60;;;;;;4994366;28;20471;-75
2022/12/20 16:07:55;;;;;;;4.17;3.70;;;9.60;77.50;;;;;;4994458;28;20449;-75
2022/12/20 16:10:21;;;;;;;3.77;3.00;;;9.70;77.20;;;;;;4994193;28;20482;-75
2022/12/20 16:12:48;;;;;;;3.43;2.80;;;9.70;76.70;;;;;;4994071;28;20446;-75
2022/12/20 16:15:20;;;;;;;4.30;3.80;;;9.70;76.60;;;;;;4994507;28;20924;-75
2022/12/20 16:17:47;;;;;;;4.13;3.63;;;9.70;76.60;;;;;;4994122;28;20429;-74
2022/12/20 16:20:14;;;;;;;4.20;3.13;;;9.80;76.60;;;;;;4993764;28;21001;-75
2022/12/20 16:22:41;;;;;;;3.87;3.20;;;9.80;76.50;;;;;;4994020;28;20557;-75
2022/12/20 16:25:23;;;;;;;3.87;3.47;;;9.80;76.50;;;;;;4993921;28;20516;-74
2022/12/20 16:27:50;;;;;;;3.20;2.90;;;9.70;76.70;;;;;;4993767;28;20840;-75
2022/12/20 16:30:17;;;;;;;3.37;2.80;;;9.60;77.10;;;;;;4994001;28;20833;-75
2022/12/20 16:32:44;;;;;;;4.20;3.80;;;9.30;77.90;;;;;;4993886;28;20477;-75
2022/12/20 16:35:28;;;;;;;4.07;3.67;;;8.90;79.00;;;;;;4994049;28;20870;-75
2022/12/20 16:37:56;;;;;;;4.57;4.10;;;8.70;80.10;;;;;;4994101;28;20439;-75
2022/12/20 16:40:27;;;;;;;5.70;4.90;;;8.60;80.40;;;;;;4993912;28;20964;-75
2022/12/20 16:42:55;;;;;;;4.87;4.13;;;8.60;80.90;;;;;;4993872;28;20488;-74
2022/12/20 16:45:24;;;;;;;4.97;4.37;;;8.70;80.30;;;;;;4996202;28;20495;-74
2022/12/20 16:47:51;;;;;;;4.10;3.27;;;8.70;80.30;;;;;;4997169;28;20457;-74
2022/12/20 16:50:19;;;;;;;3.40;2.93;;;8.70;80.70;;;;;;5007328;28;21076;-74
2022/12/20 16:52:46;;;;;;;3.97;3.57;;;8.80;80.60;;;;;;4997862;28;20493;-74
2022/12/20 16:55:17;;;;;;;4.50;3.40;;;9.00;79.40;;;;;;4994628;28;20843;-74
2022/12/20 16:57:45;;;;;;;3.43;3.03;;;8.90;79.10;;;;;;4995092;28;20441;-74
2022/12/20 17:00:17;;;;;;;4.53;4.13;;;9.00;79.40;;;;;;4993887;28;20445;-73
2022/12/20 17:02:44;;;;;;;3.90;3.50;;;8.90;79.90;;;;;;4993609;28;21049;-74
2022/12/20 17:05:22;;;;;;;4.00;3.50;;;8.80;79.80;;;;;;4994275;28;20536;-75
2022/12/20 17:07:49;;;;;;;5.60;4.70;;;8.90;79.80;;;;;;4993908;28;20430;-74
2022/12/20 17:10:17;;;;;;;5.30;4.10;;;9.00;79.10;;;;;;4993751;28;20969;-74
2022/12/20 17:12:45;;;;;;;4.10;3.37;;;8.90;79.10;;;;;;4993804;28;20473;-74
2022/12/20 17:15:19;;;;;;;3.87;3.50;;;9.00;79.20;;;;;;4997443;28;20947;-74
2022/12/20 17:17:46;;;;;;;5.03;4.07;;;9.00;79.10;;;;;;4997365;28;20902;-75
2022/12/20 17:20:14;;;;;;;4.57;4.03;;;9.10;79.20;;;;;;4997367;28;20445;-75
2022/12/20 17:22:41;;;;;;;13.87;12.67;;;9.20;78.80;;;;;;4997139;28;20470;-75
2022/12/20 17:25:28;;;;;;;3.33;3.03;;;9.20;78.40;;;;;;4997325;28;20479;-74
2022/12/20 17:27:57;;;;;;;9.37;7.10;;;9.30;77.60;;;;;;4995022;28;20457;-72